sensor_id;sensor_type;location;lat;lon;timestamp;pressure;altitude;pressure_sealevel;temperature;humidity
41515;BME280;27247;48.020;16.720;2023-04-09T00:00:40;100536.41;;;4.98;100.00
41515;BME280;27247;48.020;16.720;2023-04-09T00:04:50;100532.78;;;4.99;100.00
41515;BME280;27247;48.020;16.720;2023-04-09T00:09:01;100541.91;;;5.06;100.00
41515;BME280;27247;48.020;16.720;2023-04-09T00:13:11;100533.38;;;5.03;100.00
41515;BME280;27247;48.020;16.720;2023-04-09T00:17:21;100530.13;;;4.99;100.00
41515;BME280;27247;48.020;16.720;2023-04-09T00:21:32;100536.63;;;5.06;100.00
41515;BME280;27247;48.020;16.720;2023-04-09T00:25:42;100529.28;;;4.99;100.00
41515;BME280;27247;48.020;16.720;2023-04-09T00:29:53;100530.72;;;5.03;100.00
41515;BME280;27247;48.020;16.720;2023-04-09T00:34:04;100529.91;;;4.91;100.00
41515;BME280;27247;48.020;16.720;2023-04-09T00:38:15;100532.19;;;4.85;100.00
41515;BME280;27247;48.020;16.720;2023-04-09T00:42:25;100532.81;;;4.77;100.00
41515;BME280;27247;48.020;16.720;2023-04-09T00:46:36;100529.66;;;4.83;100.00
41515;BME280;27247;48.020;16.720;2023-04-09T00:50:47;100535.44;;;4.77;100.00
41515;BME280;27247;48.020;16.720;2023-04-09T00:55:03;100535.22;;;4.80;100.00
41515;BME280;27247;48.020;16.720;2023-04-09T00:59:14;100531.59;;;4.81;100.00
41515;BME280;27247;48.020;16.720;2023-04-09T01:03:24;100539.53;;;4.81;100.00
41515;BME280;27247;48.020;16.720;2023-04-09T01:07:41;100528.94;;;4.81;100.00
41515;BME280;27247;48.020;16.720;2023-04-09T01:16:26;100525.94;;;4.74;100.00
41515;BME280;27247;48.020;16.720;2023-04-09T01:20:42;100525.00;;;4.75;100.00
41515;BME280;27247;48.020;16.720;2023-04-09T01:25:16;100523.91;;;4.78;100.00
41515;BME280;27247;48.020;16.720;2023-04-09T01:29:34;100526.78;;;4.86;100.00
41515;BME280;27247;48.020;16.720;2023-04-09T01:33:46;100524.72;;;4.90;100.00
41515;BME280;27247;48.020;16.720;2023-04-09T01:37:57;100518.59;;;4.89;100.00
41515;BME280;27247;48.020;16.720;2023-04-09T01:42:09;100524.13;;;4.97;100.00
41515;BME280;27247;48.020;16.720;2023-04-09T01:46:21;100525.56;;;4.90;100.00
41515;BME280;27247;48.020;16.720;2023-04-09T01:50:32;100521.97;;;4.91;100.00
41515;BME280;27247;48.020;16.720;2023-04-09T01:54:43;100524.59;;;4.91;100.00
41515;BME280;27247;48.020;16.720;2023-04-09T01:58:53;100529.06;;;4.91;100.00
41515;BME280;27247;48.020;16.720;2023-04-09T02:03:16;100527.00;;;4.94;100.00
41515;BME280;27247;48.020;16.720;2023-04-09T02:16:45;100531.22;;;4.97;100.00
41515;BME280;27247;48.020;16.720;2023-04-09T02:20:56;100530.75;;;4.92;100.00
41515;BME280;27247;48.020;16.720;2023-04-09T02:25:07;100525.81;;;4.87;100.00
41515;BME280;27247;48.020;16.720;2023-04-09T02:29:18;100527.38;;;4.78;100.00
41515;BME280;27247;48.020;16.720;2023-04-09T02:33:28;100524.50;;;4.81;100.00
41515;BME280;27247;48.020;16.720;2023-04-09T02:37:38;100525.81;;;4.87;100.00
41515;BME280;27247;48.020;16.720;2023-04-09T02:41:49;100521.59;;;4.96;100.00
41515;BME280;27247;48.020;16.720;2023-04-09T02:45:59;100526.88;;;4.96;100.00
41515;BME280;27247;48.020;16.720;2023-04-09T02:50:09;100523.28;;;4.97;100.00
41515;BME280;27247;48.020;16.720;2023-04-09T02:54:20;100526.75;;;4.97;100.00
41515;BME280;27247;48.020;16.720;2023-04-09T02:58:30;100528.56;;;4.97;100.00
41515;BME280;27247;48.020;16.720;2023-04-09T03:02:40;100524.25;;;4.96;100.00
41515;BME280;27247;48.020;16.720;2023-04-09T03:06:51;100526.88;;;4.96;100.00
41515;BME280;27247;48.020;16.720;2023-04-09T03:11:01;100518.81;;;4.97;100.00
41515;BME280;27247;48.020;16.720;2023-04-09T03:15:12;100524.13;;;4.97;100.00
41515;BME280;27247;48.020;16.720;2023-04-09T03:19:22;100521.13;;;4.91;100.00
41515;BME280;27247;48.020;16.720;2023-04-09T03:23:32;100524.13;;;4.97;100.00
41515;BME280;27247;48.020;16.720;2023-04-09T03:27:44;100514.25;;;4.99;100.00
41515;BME280;27247;48.020;16.720;2023-04-09T03:31:54;100520.75;;;4.95;100.00
41515;BME280;27247;48.020;16.720;2023-04-09T03:36:04;100517.03;;;4.87;100.00
41515;BME280;27247;48.020;16.720;2023-04-09T03:40:15;100516.31;;;4.85;100.00
41515;BME280;27247;48.020;16.720;2023-04-09T03:44:25;100517.63;;;4.90;100.00
41515;BME280;27247;48.020;16.720;2023-04-09T03:48:36;100521.38;;;4.88;100.00
41515;BME280;27247;48.020;16.720;2023-04-09T03:52:46;100524.97;;;4.87;100.00
41515;BME280;27247;48.020;16.720;2023-04-09T03:56:57;100525.22;;;4.84;100.00
41515;BME280;27247;48.020;16.720;2023-04-09T04:01:07;100533.41;;;4.80;100.00
41515;BME280;27247;48.020;16.720;2023-04-09T04:05:17;100536.78;;;4.71;100.00
41515;BME280;27247;48.020;16.720;2023-04-09T04:09:28;100537.63;;;4.72;100.00
41515;BME280;27247;48.020;16.720;2023-04-09T04:13:38;100538.09;;;4.77;100.00
41515;BME280;27247;48.020;16.720;2023-04-09T04:17:48;100543.75;;;4.72;100.00
41515;BME280;27247;48.020;16.720;2023-04-09T04:21:59;100543.75;;;4.72;100.00
41515;BME280;27247;48.020;16.720;2023-04-09T04:26:09;100541.22;;;4.71;100.00
41515;BME280;27247;48.020;16.720;2023-04-09T04:30:20;100546.28;;;4.74;100.00
41515;BME280;27247;48.020;16.720;2023-04-09T04:34:31;100553.75;;;4.69;100.00
41515;BME280;27247;48.020;16.720;2023-04-09T04:38:41;100551.59;;;4.74;100.00
41515;BME280;27247;48.020;16.720;2023-04-09T04:42:52;100553.25;;;4.75;100.00
41515;BME280;27247;48.020;16.720;2023-04-09T04:47:02;100560.47;;;4.62;100.00
41515;BME280;27247;48.020;16.720;2023-04-09T04:51:12;100562.16;;;4.52;100.00
41515;BME280;27247;48.020;16.720;2023-04-09T04:55:23;100563.00;;;4.52;100.00
41515;BME280;27247;48.020;16.720;2023-04-09T04:59:36;100566.75;;;4.61;100.00
41515;BME280;27247;48.020;16.720;2023-04-09T05:03:46;100566.50;;;4.64;100.00
41515;BME280;27247;48.020;16.720;2023-04-09T05:07:57;100565.78;;;4.73;100.00
41515;BME280;27247;48.020;16.720;2023-04-09T05:12:07;100564.47;;;4.78;100.00
41515;BME280;27247;48.020;16.720;2023-04-09T05:16:19;100562.16;;;4.74;100.00
41515;BME280;27247;48.020;16.720;2023-04-09T05:20:29;100568.06;;;4.66;100.00
41515;BME280;27247;48.020;16.720;2023-04-09T05:24:40;100573.59;;;4.74;100.00
41515;BME280;27247;48.020;16.720;2023-04-09T05:28:50;100583.34;;;4.74;100.00
41515;BME280;27247;48.020;16.720;2023-04-09T05:33:01;100579.13;;;4.82;100.00
41515;BME280;27247;48.020;16.720;2023-04-09T05:37:12;100575.88;;;4.90;100.00
41515;BME280;27247;48.020;16.720;2023-04-09T05:41:22;100587.44;;;5.00;100.00
41515;BME280;27247;48.020;16.720;2023-04-09T05:45:32;100595.25;;;5.02;100.00
41515;BME280;27247;48.020;16.720;2023-04-09T05:49:43;100594.28;;;5.03;100.00
41515;BME280;27247;48.020;16.720;2023-04-09T05:53:53;100592.59;;;5.13;100.00
41515;BME280;27247;48.020;16.720;2023-04-09T05:58:03;100597.06;;;5.12;100.00
41515;BME280;27247;48.020;16.720;2023-04-09T06:02:14;100595.59;;;5.20;100.00
41515;BME280;27247;48.020;16.720;2023-04-09T06:06:24;100594.66;;;5.21;100.00
41515;BME280;27247;48.020;16.720;2023-04-09T06:10:35;100606.00;;;5.23;100.00
41515;BME280;27247;48.020;16.720;2023-04-09T06:14:47;100602.72;;;5.19;100.00
41515;BME280;27247;48.020;16.720;2023-04-09T06:18:57;100609.22;;;5.26;100.00
41515;BME280;27247;48.020;16.720;2023-04-09T06:23:07;100607.19;;;5.30;100.00
41515;BME280;27247;48.020;16.720;2023-04-09T06:27:18;100607.78;;;5.33;100.00
41515;BME280;27247;48.020;16.720;2023-04-09T06:31:28;100613.06;;;5.33;100.00
41515;BME280;27247;48.020;16.720;2023-04-09T06:35:38;100613.66;;;5.37;100.00
41515;BME280;27247;48.020;16.720;2023-04-09T06:39:49;100613.56;;;5.38;100.00
41515;BME280;27247;48.020;16.720;2023-04-09T06:44:00;100622.34;;;5.39;100.00
41515;BME280;27247;48.020;16.720;2023-04-09T06:48:10;100625.34;;;5.34;100.00
41515;BME280;27247;48.020;16.720;2023-04-09T06:52:20;100621.38;;;5.40;100.00
41515;BME280;27247;48.020;16.720;2023-04-09T06:56:31;100625.72;;;5.41;100.00
41515;BME280;27247;48.020;16.720;2023-04-09T07:00:41;100632.56;;;5.43;100.00
41515;BME280;27247;48.020;16.720;2023-04-09T07:04:51;100634.38;;;5.54;100.00
41515;BME280;27247;48.020;16.720;2023-04-09T07:09:02;100638.31;;;5.60;100.00
41515;BME280;27247;48.020;16.720;2023-04-09T07:13:12;100637.00;;;5.65;100.00
41515;BME280;27247;48.020;16.720;2023-04-09T07:17:23;100640.22;;;5.69;100.00
41515;BME280;27247;48.020;16.720;2023-04-09T07:21:33;100640.66;;;5.85;100.00
41515;BME280;27247;48.020;16.720;2023-04-09T07:25:43;100644.88;;;5.99;100.00
41515;BME280;27247;48.020;16.720;2023-04-09T07:29:55;100648.69;;;6.06;100.00
41515;BME280;27247;48.020;16.720;2023-04-09T07:34:06;100649.88;;;6.13;100.00
41515;BME280;27247;48.020;16.720;2023-04-09T07:38:16;100647.09;;;6.15;100.00
41515;BME280;27247;48.020;16.720;2023-04-09T07:42:26;100659.00;;;6.20;100.00
41515;BME280;27247;48.020;16.720;2023-04-09T07:46:37;100651.19;;;6.19;100.00
41515;BME280;27247;48.020;16.720;2023-04-09T07:50:48;100660.81;;;6.31;100.00
41515;BME280;27247;48.020;16.720;2023-04-09T07:54:59;100661.34;;;6.46;100.00
41515;BME280;27247;48.020;16.720;2023-04-09T07:59:09;100666.50;;;6.47;100.00
41515;BME280;27247;48.020;16.720;2023-04-09T08:03:21;100657.31;;;6.51;100.00
41515;BME280;27247;48.020;16.720;2023-04-09T08:07:32;100665.72;;;6.56;100.00
41515;BME280;27247;48.020;16.720;2023-04-09T08:11:42;100673.50;;;6.69;100.00
41515;BME280;27247;48.020;16.720;2023-04-09T08:15:54;100671.34;;;6.84;100.00
41515;BME280;27247;48.020;16.720;2023-04-09T08:20:05;100669.72;;;6.92;99.29
41515;BME280;27247;48.020;16.720;2023-04-09T08:24:16;100672.25;;;6.94;97.15
41515;BME280;27247;48.020;16.720;2023-04-09T08:28:26;100672.50;;;6.91;96.87
41515;BME280;27247;48.020;16.720;2023-04-09T08:32:36;100680.88;;;6.86;95.84
41515;BME280;27247;48.020;16.720;2023-04-09T08:36:47;100682.13;;;6.82;95.21
41515;BME280;27247;48.020;16.720;2023-04-09T08:40:58;100678.03;;;6.78;95.58
41515;BME280;27247;48.020;16.720;2023-04-09T08:45:10;100681.53;;;6.79;96.28
41515;BME280;27247;48.020;16.720;2023-04-09T08:49:20;100687.38;;;6.72;95.42
41515;BME280;27247;48.020;16.720;2023-04-09T08:53:31;100690.72;;;6.75;95.11
41515;BME280;27247;48.020;16.720;2023-04-09T08:57:42;100687.69;;;6.79;95.20
41515;BME280;27247;48.020;16.720;2023-04-09T09:02:09;100699.53;;;6.75;92.60
41515;BME280;27247;48.020;16.720;2023-04-09T09:06:21;100695.78;;;6.78;92.97
41515;BME280;27247;48.020;16.720;2023-04-09T09:10:40;100703.50;;;6.81;93.50
41515;BME280;27247;48.020;16.720;2023-04-09T09:14:51;100697.28;;;6.91;95.08
41515;BME280;27247;48.020;16.720;2023-04-09T09:19:02;100696.09;;;7.05;94.38
41515;BME280;27247;48.020;16.720;2023-04-09T09:23:12;100692.63;;;7.14;95.73
41515;BME280;27247;48.020;16.720;2023-04-09T09:27:36;100698.00;;;7.24;92.50
41515;BME280;27247;48.020;16.720;2023-04-09T09:31:51;100693.59;;;7.34;93.52
41515;BME280;27247;48.020;16.720;2023-04-09T09:36:02;100701.31;;;7.37;94.86
41515;BME280;27247;48.020;16.720;2023-04-09T09:40:26;100696.84;;;7.17;93.63
41515;BME280;27247;48.020;16.720;2023-04-09T09:44:37;100703.53;;;7.11;94.74
41515;BME280;27247;48.020;16.720;2023-04-09T09:48:47;100702.28;;;7.15;96.59
41515;BME280;27247;48.020;16.720;2023-04-09T09:53:03;100705.09;;;7.14;94.24
41515;BME280;27247;48.020;16.720;2023-04-09T09:57:16;100696.72;;;7.18;94.71
41515;BME280;27247;48.020;16.720;2023-04-09T10:01:28;100702.88;;;7.19;94.92
41515;BME280;27247;48.020;16.720;2023-04-09T10:05:39;100696.97;;;7.15;94.66
41515;BME280;27247;48.020;16.720;2023-04-09T10:09:50;100700.78;;;7.22;94.32
41515;BME280;27247;48.020;16.720;2023-04-09T10:14:02;100706.56;;;7.27;92.96
41515;BME280;27247;48.020;16.720;2023-04-09T10:18:14;100696.19;;;7.24;91.83
41515;BME280;27247;48.020;16.720;2023-04-09T10:22:28;100687.09;;;7.27;93.68
41515;BME280;27247;48.020;16.720;2023-04-09T10:26:41;100687.22;;;7.25;89.81
41515;BME280;27247;48.020;16.720;2023-04-09T10:30:53;100679.97;;;7.27;89.41
41515;BME280;27247;48.020;16.720;2023-04-09T10:35:04;100682.53;;;7.29;89.31
41515;BME280;27247;48.020;16.720;2023-04-09T10:39:16;100678.63;;;7.33;89.33
41515;BME280;27247;48.020;16.720;2023-04-09T10:43:28;100670.81;;;7.41;90.70
41515;BME280;27247;48.020;16.720;2023-04-09T10:47:41;100670.13;;;7.49;90.49
41515;BME280;27247;48.020;16.720;2023-04-09T10:52:04;100676.59;;;7.56;89.01
41515;BME280;27247;48.020;16.720;2023-04-09T10:56:14;100669.19;;;7.59;88.37
41515;BME280;27247;48.020;16.720;2023-04-09T11:00:27;100665.72;;;7.68;88.90
41515;BME280;27247;48.020;16.720;2023-04-09T11:04:52;100669.22;;;7.79;87.73
41515;BME280;27247;48.020;16.720;2023-04-09T11:09:09;100667.28;;;7.81;86.91
41515;BME280;27247;48.020;16.720;2023-04-09T11:13:20;100673.72;;;7.88;86.63
41515;BME280;27247;48.020;16.720;2023-04-09T11:17:34;100664.38;;;8.03;87.54
41515;BME280;27247;48.020;16.720;2023-04-09T11:21:46;100672.63;;;8.10;85.69
41515;BME280;27247;48.020;16.720;2023-04-09T11:25:57;100661.50;;;8.35;86.80
41515;BME280;27247;48.020;16.720;2023-04-09T11:30:08;100657.84;;;8.46;86.21
41515;BME280;27247;48.020;16.720;2023-04-09T11:34:18;100667.59;;;8.74;86.79
41515;BME280;27247;48.020;16.720;2023-04-09T11:38:30;100661.25;;;8.94;85.46
41515;BME280;27247;48.020;16.720;2023-04-09T11:42:40;100655.19;;;9.02;83.34
41515;BME280;27247;48.020;16.720;2023-04-09T11:46:51;100657.19;;;8.90;80.09
41515;BME280;27247;48.020;16.720;2023-04-09T11:51:02;100664.88;;;8.93;80.53
41515;BME280;27247;48.020;16.720;2023-04-09T11:55:27;100658.56;;;8.94;81.33
41515;BME280;27247;48.020;16.720;2023-04-09T11:59:38;100661.09;;;8.96;82.05
41515;BME280;27247;48.020;16.720;2023-04-09T12:03:52;100662.81;;;8.87;80.53
41515;BME280;27247;48.020;16.720;2023-04-09T12:08:06;100657.63;;;8.76;80.71
41515;BME280;27247;48.020;16.720;2023-04-09T12:12:18;100663.66;;;8.88;80.31
41515;BME280;27247;48.020;16.720;2023-04-09T12:16:30;100662.81;;;8.87;80.20
41515;BME280;27247;48.020;16.720;2023-04-09T12:20:42;100655.25;;;8.73;78.22
41515;BME280;27247;48.020;16.720;2023-04-09T12:24:53;100657.97;;;8.54;79.73
41515;BME280;27247;48.020;16.720;2023-04-09T12:29:04;100651.94;;;8.52;82.33
41515;BME280;27247;48.020;16.720;2023-04-09T12:33:14;100651.22;;;8.59;82.47
41515;BME280;27247;48.020;16.720;2023-04-09T12:37:25;100655.16;;;8.55;80.73
41515;BME280;27247;48.020;16.720;2023-04-09T12:41:36;100652.63;;;8.54;81.28
41515;BME280;27247;48.020;16.720;2023-04-09T12:45:46;100648.88;;;8.37;80.57
41515;BME280;27247;48.020;16.720;2023-04-09T12:49:56;100640.41;;;8.32;80.95
41515;BME280;27247;48.020;16.720;2023-04-09T12:54:07;100649.50;;;8.29;81.24
41515;BME280;27247;48.020;16.720;2023-04-09T12:58:17;100644.81;;;8.33;82.84
41515;BME280;27247;48.020;16.720;2023-04-09T13:02:27;100647.28;;;8.15;83.34
41515;BME280;27247;48.020;16.720;2023-04-09T13:06:38;100652.72;;;7.94;89.19
41515;BME280;27247;48.020;16.720;2023-04-09T13:10:48;100652.41;;;7.68;93.15
41515;BME280;27247;48.020;16.720;2023-04-09T13:14:58;100659.38;;;7.20;93.46
41515;BME280;27247;48.020;16.720;2023-04-09T13:19:09;100659.53;;;6.97;93.58
41515;BME280;27247;48.020;16.720;2023-04-09T13:23:19;100655.16;;;6.87;91.35
41515;BME280;27247;48.020;16.720;2023-04-09T13:27:30;100652.38;;;6.88;91.43
41515;BME280;27247;48.020;16.720;2023-04-09T13:31:40;100651.84;;;6.94;88.70
41515;BME280;27247;48.020;16.720;2023-04-09T13:35:50;100651.53;;;7.18;89.93
41515;BME280;27247;48.020;16.720;2023-04-09T13:40:01;100648.13;;;7.37;88.89
41515;BME280;27247;48.020;16.720;2023-04-09T13:44:11;100652.50;;;7.48;87.38
41515;BME280;27247;48.020;16.720;2023-04-09T13:48:23;100646.78;;;7.62;85.36
41515;BME280;27247;48.020;16.720;2023-04-09T13:52:33;100652.97;;;7.62;84.87
41515;BME280;27247;48.020;16.720;2023-04-09T13:56:44;100651.25;;;7.52;83.52
41515;BME280;27247;48.020;16.720;2023-04-09T14:00:56;100641.56;;;7.41;84.92
41515;BME280;27247;48.020;16.720;2023-04-09T14:05:06;100641.97;;;7.36;85.99
41515;BME280;27247;48.020;16.720;2023-04-09T14:09:17;100635.28;;;7.42;86.18
41515;BME280;27247;48.020;16.720;2023-04-09T14:13:27;100640.44;;;7.44;85.89
41515;BME280;27247;48.020;16.720;2023-04-09T14:17:38;100641.44;;;7.43;87.20
41515;BME280;27247;48.020;16.720;2023-04-09T14:21:48;100637.25;;;7.50;86.63
41515;BME280;27247;48.020;16.720;2023-04-09T14:26:02;100637.28;;;7.59;86.02
41515;BME280;27247;48.020;16.720;2023-04-09T14:30:13;100633.09;;;7.66;85.85
41515;BME280;27247;48.020;16.720;2023-04-09T14:34:23;100616.88;;;7.79;84.71
41515;BME280;27247;48.020;16.720;2023-04-09T14:38:34;100617.56;;;7.91;82.31
41515;BME280;27247;48.020;16.720;2023-04-09T14:42:44;100631.72;;;8.11;81.41
41515;BME280;27247;48.020;16.720;2023-04-09T14:46:55;100630.03;;;8.19;80.45
41515;BME280;27247;48.020;16.720;2023-04-09T14:51:10;100626.53;;;8.28;82.53
41515;BME280;27247;48.020;16.720;2023-04-09T14:55:20;100623.50;;;8.43;81.12
41515;BME280;27247;48.020;16.720;2023-04-09T14:59:31;100615.78;;;8.49;79.32
41515;BME280;27247;48.020;16.720;2023-04-09T15:03:41;100619.84;;;8.53;80.97
41515;BME280;27247;48.020;16.720;2023-04-09T15:07:53;100616.44;;;8.61;80.78
41515;BME280;27247;48.020;16.720;2023-04-09T15:12:04;100609.13;;;8.73;81.94
41515;BME280;27247;48.020;16.720;2023-04-09T15:16:25;100609.28;;;9.08;82.34
41515;BME280;27247;48.020;16.720;2023-04-09T15:20:37;100604.78;;;9.36;78.21
41515;BME280;27247;48.020;16.720;2023-04-09T15:24:48;100607.66;;;9.52;76.46
41515;BME280;27247;48.020;16.720;2023-04-09T15:29:04;100613.94;;;9.61;76.49
41515;BME280;27247;48.020;16.720;2023-04-09T15:33:15;100615.63;;;9.80;76.72
41515;BME280;27247;48.020;16.720;2023-04-09T15:37:25;100616.84;;;9.85;76.73
41515;BME280;27247;48.020;16.720;2023-04-09T15:41:36;100618.47;;;9.96;75.08
41515;BME280;27247;48.020;16.720;2023-04-09T15:45:46;100627.84;;;10.00;74.27
41515;BME280;27247;48.020;16.720;2023-04-09T15:49:57;100621.44;;;9.93;72.66
41515;BME280;27247;48.020;16.720;2023-04-09T15:54:08;100618.00;;;9.83;73.51
41515;BME280;27247;48.020;16.720;2023-04-09T15:58:18;100624.00;;;9.67;73.65
41515;BME280;27247;48.020;16.720;2023-04-09T16:02:29;100619.03;;;9.54;74.25
41515;BME280;27247;48.020;16.720;2023-04-09T16:06:39;100621.06;;;9.43;75.05
41515;BME280;27247;48.020;16.720;2023-04-09T16:10:50;100610.47;;;9.23;76.94
41515;BME280;27247;48.020;16.720;2023-04-09T16:15:01;100618.41;;;9.06;77.09
41515;BME280;27247;48.020;16.720;2023-04-09T16:19:12;100617.91;;;8.92;78.17
41515;BME280;27247;48.020;16.720;2023-04-09T16:23:24;100622.28;;;8.84;78.66
41515;BME280;27247;48.020;16.720;2023-04-09T16:27:34;100622.19;;;8.66;80.57
41515;BME280;27247;48.020;16.720;2023-04-09T16:31:45;100621.91;;;8.59;81.72
41515;BME280;27247;48.020;16.720;2023-04-09T16:35:55;100621.38;;;8.56;82.14
41515;BME280;27247;48.020;16.720;2023-04-09T16:40:06;100619.97;;;8.52;83.02
41515;BME280;27247;48.020;16.720;2023-04-09T16:44:17;100615.22;;;8.36;83.54
41515;BME280;27247;48.020;16.720;2023-04-09T16:48:27;100620.00;;;8.42;83.57
41515;BME280;27247;48.020;16.720;2023-04-09T16:52:38;100620.56;;;8.36;84.48
41515;BME280;27247;48.020;16.720;2023-04-09T16:56:49;100627.22;;;8.30;84.82
41515;BME280;27247;48.020;16.720;2023-04-09T17:01:00;100613.63;;;8.24;85.57
41515;BME280;27247;48.020;16.720;2023-04-09T17:05:11;100619.09;;;8.22;85.59
41515;BME280;27247;48.020;16.720;2023-04-09T17:09:21;100623.88;;;8.28;85.40
41515;BME280;27247;48.020;16.720;2023-04-09T17:13:33;100627.66;;;8.16;85.95
41515;BME280;27247;48.020;16.720;2023-04-09T17:17:45;100632.56;;;8.11;86.38
41515;BME280;27247;48.020;16.720;2023-04-09T17:21:56;100633.13;;;8.15;86.32
41515;BME280;27247;48.020;16.720;2023-04-09T17:26:07;100635.22;;;8.11;86.64
41515;BME280;27247;48.020;16.720;2023-04-09T17:30:18;100637.47;;;8.06;86.70
41515;BME280;27247;48.020;16.720;2023-04-09T17:34:29;100633.53;;;7.91;87.35
41515;BME280;27247;48.020;16.720;2023-04-09T17:38:39;100636.31;;;7.80;87.74
41515;BME280;27247;48.020;16.720;2023-04-09T17:42:50;100643.59;;;7.78;87.92
41515;BME280;27247;48.020;16.720;2023-04-09T17:47:00;100644.59;;;7.77;88.67
41515;BME280;27247;48.020;16.720;2023-04-09T17:51:15;100650.34;;;7.82;89.12
41515;BME280;27247;48.020;16.720;2023-04-09T17:55:25;100659.84;;;7.84;91.08
41515;BME280;27247;48.020;16.720;2023-04-09T17:59:36;100657.16;;;7.65;92.60
41515;BME280;27247;48.020;16.720;2023-04-09T18:03:47;100665.25;;;7.54;94.26
41515;BME280;27247;48.020;16.720;2023-04-09T18:07:58;100664.13;;;7.56;94.70
41515;BME280;27247;48.020;16.720;2023-04-09T18:12:08;100671.13;;;7.48;94.27
41515;BME280;27247;48.020;16.720;2023-04-09T18:16:19;100671.38;;;7.45;95.05
41515;BME280;27247;48.020;16.720;2023-04-09T18:20:32;100668.38;;;7.28;95.57
41515;BME280;27247;48.020;16.720;2023-04-09T18:24:42;100683.47;;;7.28;96.12
41515;BME280;27247;48.020;16.720;2023-04-09T18:28:52;100682.75;;;7.26;96.07
41515;BME280;27247;48.020;16.720;2023-04-09T18:33:03;100694.09;;;7.28;96.24
41515;BME280;27247;48.020;16.720;2023-04-09T18:37:14;100697.94;;;7.14;96.48
41515;BME280;27247;48.020;16.720;2023-04-09T18:41:25;100693.44;;;7.05;96.19
41515;BME280;27247;48.020;16.720;2023-04-09T18:45:35;100688.97;;;7.05;96.36
41515;BME280;27247;48.020;16.720;2023-04-09T18:49:46;100695.91;;;6.97;97.16
41515;BME280;27247;48.020;16.720;2023-04-09T18:53:56;100714.00;;;6.82;97.83
41515;BME280;27247;48.020;16.720;2023-04-09T18:58:10;100715.94;;;6.80;98.01
41515;BME280;27247;48.020;16.720;2023-04-09T19:02:24;100714.44;;;6.66;98.70
41515;BME280;27247;48.020;16.720;2023-04-09T19:06:34;100718.72;;;6.58;99.42
41515;BME280;27247;48.020;16.720;2023-04-09T19:10:45;100721.88;;;6.52;99.78
41515;BME280;27247;48.020;16.720;2023-04-09T19:14:56;100722.66;;;6.43;100.00
41515;BME280;27247;48.020;16.720;2023-04-09T19:19:11;100726.28;;;6.42;100.00
41515;BME280;27247;48.020;16.720;2023-04-09T19:23:22;100723.88;;;6.38;100.00
41515;BME280;27247;48.020;16.720;2023-04-09T19:27:32;100729.19;;;6.38;100.00
41515;BME280;27247;48.020;16.720;2023-04-09T19:31:42;100733.56;;;6.28;100.00
41515;BME280;27247;48.020;16.720;2023-04-09T19:35:54;100734.28;;;6.30;100.00
41515;BME280;27247;48.020;16.720;2023-04-09T19:40:05;100733.81;;;6.25;100.00
41515;BME280;27247;48.020;16.720;2023-04-09T19:44:15;100730.41;;;6.23;100.00
41515;BME280;27247;48.020;16.720;2023-04-09T19:48:26;100742.03;;;6.11;100.00
41515;BME280;27247;48.020;16.720;2023-04-09T19:52:36;100727.41;;;6.17;100.00
41515;BME280;27247;48.020;16.720;2023-04-09T19:56:49;100729.47;;;6.13;100.00
41515;BME280;27247;48.020;16.720;2023-04-09T20:01:00;100734.66;;;6.15;100.00
41515;BME280;27247;48.020;16.720;2023-04-09T20:05:10;100732.59;;;6.18;100.00
41515;BME280;27247;48.020;16.720;2023-04-09T20:09:22;100734.66;;;6.26;100.00
41515;BME280;27247;48.020;16.720;2023-04-09T20:13:38;100725.94;;;6.35;100.00
41515;BME280;27247;48.020;16.720;2023-04-09T20:17:49;100740.44;;;6.31;100.00
41515;BME280;27247;48.020;16.720;2023-04-09T20:22:00;100732.72;;;6.17;100.00
41515;BME280;27247;48.020;16.720;2023-04-09T20:26:10;100734.69;;;6.03;100.00
41515;BME280;27247;48.020;16.720;2023-04-09T20:30:22;100736.66;;;5.90;100.00
41515;BME280;27247;48.020;16.720;2023-04-09T20:34:32;100737.94;;;5.85;100.00
41515;BME280;27247;48.020;16.720;2023-04-09T20:38:43;100730.13;;;5.83;100.00
41515;BME280;27247;48.020;16.720;2023-04-09T20:42:53;100734.00;;;5.90;100.00
41515;BME280;27247;48.020;16.720;2023-04-09T20:47:04;100729.75;;;5.88;100.00
41515;BME280;27247;48.020;16.720;2023-04-09T20:51:16;100731.81;;;5.84;100.00
41515;BME280;27247;48.020;16.720;2023-04-09T20:55:26;100734.00;;;5.90;100.00
41515;BME280;27247;48.020;16.720;2023-04-09T20:59:36;100744.13;;;5.96;100.00
41515;BME280;27247;48.020;16.720;2023-04-09T21:03:47;100739.16;;;6.03;100.00
41515;BME280;27247;48.020;16.720;2023-04-09T21:07:57;100740.00;;;6.03;100.00
41515;BME280;27247;48.020;16.720;2023-04-09T21:12:08;100736.63;;;6.01;100.00
41515;BME280;27247;48.020;16.720;2023-04-09T21:16:18;100734.59;;;5.94;100.00
41515;BME280;27247;48.020;16.720;2023-04-09T21:20:28;100739.50;;;5.87;100.00
41515;BME280;27247;48.020;16.720;2023-04-09T21:24:39;100742.41;;;5.84;100.00
41515;BME280;27247;48.020;16.720;2023-04-09T21:28:49;100738.47;;;5.67;100.00
41515;BME280;27247;48.020;16.720;2023-04-09T21:33:01;100737.50;;;5.57;100.00
41515;BME280;27247;48.020;16.720;2023-04-09T21:37:11;100751.13;;;5.53;100.00
41515;BME280;27247;48.020;16.720;2023-04-09T21:41:22;100756.06;;;5.46;100.00
41515;BME280;27247;48.020;16.720;2023-04-09T21:45:32;100756.06;;;5.46;100.00
41515;BME280;27247;48.020;16.720;2023-04-09T21:49:43;100755.69;;;5.28;100.00
41515;BME280;27247;48.020;16.720;2023-04-09T21:54:07;100757.44;;;5.17;100.00
41515;BME280;27247;48.020;16.720;2023-04-09T21:58:18;100750.59;;;5.14;100.00